createdAt,value
2022-07-25T00:00:55.354Z,21.75
2022-07-25T00:02:00.558Z,21.59
2022-07-25T00:03:04.559Z,21.67
2022-07-25T00:04:09.918Z,21.59
2022-07-25T00:05:15.313Z,21.71
2022-07-25T00:06:18.374Z,21.70
2022-07-25T00:07:21.440Z,21.43
2022-07-25T00:08:24.637Z,21.41
2022-07-25T00:09:27.596Z,21.52
2022-07-25T00:10:33.593Z,21.47
2022-07-25T00:11:37.357Z,21.50
2022-07-25T00:12:41.639Z,21.38
2022-07-25T00:13:44.740Z,21.50
2022-07-25T00:14:48.521Z,21.47
2022-07-25T00:15:51.687Z,21.34
2022-07-25T00:16:54.678Z,21.26
2022-07-25T00:17:57.693Z,21.32
2022-07-25T00:19:01.479Z,21.27
2022-07-25T00:20:05.823Z,21.31
2022-07-25T00:21:09.178Z,21.48
2022-07-25T00:22:12.224Z,21.48
2022-07-25T00:23:15.180Z,21.35
2022-07-25T00:24:18.148Z,21.29
2022-07-25T00:25:21.168Z,21.30
2022-07-25T00:26:24.067Z,21.29
2022-07-25T00:27:27.264Z,21.18
2022-07-25T00:28:30.256Z,21.22
2022-07-25T00:29:33.201Z,21.30
2022-07-25T00:30:36.274Z,21.20
2022-07-25T00:31:39.324Z,21.29
2022-07-25T00:32:42.399Z,21.28
2022-07-25T00:33:48.444Z,21.28
2022-07-25T00:34:51.505Z,21.19
2022-07-25T00:35:54.514Z,21.10
2022-07-25T00:36:57.502Z,21.09
2022-07-25T00:38:00.668Z,21.12
2022-07-25T00:39:04.381Z,21.09
2022-07-25T00:40:07.994Z,21.05
2022-07-25T00:41:11.709Z,21.23
2022-07-25T00:42:14.993Z,21.36
2022-07-25T00:43:17.992Z,21.51
2022-07-25T00:44:33.545Z,21.29
2022-07-25T00:45:36.630Z,21.16
2022-07-25T00:46:39.965Z,21.31
2022-07-25T00:47:44.926Z,21.17
2022-07-25T00:48:48.211Z,21.30
2022-07-25T00:49:51.112Z,20.99
2022-07-25T00:50:54.543Z,20.86
2022-07-25T00:51:58.593Z,20.85
2022-07-25T00:53:01.696Z,20.94
2022-07-25T00:54:05.193Z,20.92
2022-07-25T00:55:09.558Z,20.90
2022-07-25T00:56:12.947Z,20.83
2022-07-25T00:57:16.018Z,20.82
2022-07-25T00:58:19.441Z,20.81
2022-07-25T00:59:22.527Z,20.87
2022-07-25T01:00:25.892Z,20.77
2022-07-25T01:01:28.937Z,20.71
2022-07-25T01:02:32.037Z,20.67
2022-07-25T01:03:35.773Z,20.70
2022-07-25T01:04:38.878Z,20.61
2022-07-25T01:05:42.480Z,20.70
2022-07-25T01:06:46.104Z,20.69
2022-07-25T01:07:49.323Z,20.62
2022-07-25T01:08:52.810Z,20.67
2022-07-25T01:09:56.937Z,20.64
2022-07-25T01:11:00.138Z,20.51
2022-07-25T01:12:03.247Z,20.58
2022-07-25T01:13:06.881Z,20.54
2022-07-25T01:14:10.142Z,20.60
2022-07-25T01:15:13.273Z,20.61
2022-07-25T01:16:16.494Z,20.53
2022-07-25T01:17:19.520Z,20.53
2022-07-25T01:18:24.739Z,20.46
2022-07-25T01:19:27.969Z,20.41
2022-07-25T01:20:32.211Z,20.33
2022-07-25T01:21:39.512Z,20.31
2022-07-25T01:22:42.895Z,20.37
2022-07-25T01:23:46.035Z,20.38
2022-07-25T01:24:49.062Z,20.33
2022-07-25T01:25:54.039Z,20.26
2022-07-25T01:26:57.052Z,20.24
2022-07-25T01:28:03.507Z,20.40
2022-07-25T01:29:06.752Z,20.38
2022-07-25T01:30:12.271Z,20.31
2022-07-25T01:31:15.666Z,20.24
2022-07-25T01:32:18.687Z,20.18
2022-07-25T01:33:22.471Z,20.36
2022-07-25T01:34:25.447Z,20.20
2022-07-25T01:35:28.450Z,19.99
2022-07-25T01:36:31.800Z,19.92
2022-07-25T01:37:35.357Z,19.87
2022-07-25T01:38:38.594Z,20.07
2022-07-25T01:39:41.720Z,20.25
2022-07-25T01:40:45.140Z,20.37
2022-07-25T01:41:48.037Z,19.90
2022-07-25T01:42:51.048Z,19.80
2022-07-25T01:43:53.988Z,19.75
2022-07-25T01:44:57.011Z,20.12
2022-07-25T01:46:00.300Z,19.62
2022-07-25T01:47:03.473Z,19.47
2022-07-25T01:48:06.875Z,19.37
2022-07-25T01:49:10.003Z,19.43
2022-07-25T01:50:13.245Z,19.39
2022-07-25T01:51:16.387Z,19.30
2022-07-25T01:52:23.609Z,19.08
2022-07-25T01:53:26.647Z,19.48
2022-07-25T01:54:29.736Z,19.48
2022-07-25T01:55:33.131Z,19.43
2022-07-25T01:56:36.593Z,19.56
2022-07-25T01:57:40.578Z,19.47
2022-07-25T01:58:52.001Z,19.17
2022-07-25T01:59:55.033Z,19.15
2022-07-25T02:00:58.571Z,19.21
2022-07-25T02:02:01.651Z,19.20
2022-07-25T02:03:23.217Z,19.03
2022-07-25T02:04:26.165Z,18.95
2022-07-25T02:05:29.231Z,19.06
2022-07-25T02:06:34.767Z,19.19
2022-07-25T02:07:38.397Z,19.20
2022-07-25T02:08:41.366Z,19.17
2022-07-25T02:09:44.473Z,19.22
2022-07-25T02:10:47.537Z,19.09
2022-07-25T02:11:50.568Z,19.07
2022-07-25T02:12:53.608Z,19.08
2022-07-25T02:13:56.540Z,18.89
2022-07-25T02:15:00.183Z,18.93
2022-07-25T02:16:03.152Z,19.08
2022-07-25T02:17:06.822Z,19.10
2022-07-25T02:18:11.272Z,18.95
2022-07-25T02:19:14.355Z,19.14
2022-07-25T02:20:17.395Z,19.09
2022-07-25T02:21:21.172Z,19.01
2022-07-25T02:22:24.312Z,19.11
2022-07-25T02:23:27.292Z,19.08
2022-07-25T02:24:30.395Z,19.25
2022-07-25T02:25:34.279Z,19.10
2022-07-25T02:26:37.360Z,19.18
2022-07-25T02:27:40.565Z,19.19
2022-07-25T02:28:44.091Z,19.22
2022-07-25T02:29:47.260Z,19.30
2022-07-25T02:30:50.598Z,19.20
2022-07-25T02:31:53.929Z,19.25
2022-07-25T02:32:57.054Z,19.38
2022-07-25T02:34:00.152Z,19.38
2022-07-25T02:35:03.175Z,19.28
2022-07-25T02:36:12.977Z,19.30
2022-07-25T02:37:15.995Z,19.26
2022-07-25T02:38:21.938Z,19.33
2022-07-25T02:39:25.626Z,19.36
2022-07-25T02:40:28.699Z,19.26
2022-07-25T02:41:31.775Z,19.29
2022-07-25T02:42:34.892Z,19.40
2022-07-25T02:43:37.875Z,19.40
2022-07-25T02:44:40.851Z,19.44
2022-07-25T02:45:44.095Z,19.48
2022-07-25T02:46:47.218Z,19.42
2022-07-25T02:47:50.444Z,19.35
2022-07-25T02:48:53.550Z,19.33
2022-07-25T02:49:56.709Z,19.29
2022-07-25T02:50:59.702Z,19.35
2022-07-25T02:52:02.786Z,19.30
2022-07-25T02:53:05.845Z,19.29
2022-07-25T02:54:08.818Z,19.48
2022-07-25T02:55:12.395Z,19.38
2022-07-25T02:56:15.755Z,19.36
2022-07-25T02:57:19.852Z,19.29
2022-07-25T02:58:22.799Z,19.37
2022-07-25T02:59:25.817Z,19.51
2022-07-25T03:00:36.174Z,19.49
2022-07-25T03:01:39.207Z,19.60
2022-07-25T03:02:42.371Z,19.65
2022-07-25T03:03:48.602Z,19.56
2022-07-25T03:04:51.658Z,19.62
2022-07-25T03:05:54.664Z,19.62
2022-07-25T03:06:57.690Z,19.49
2022-07-25T03:08:00.674Z,19.46
2022-07-25T03:09:04.928Z,19.38
2022-07-25T03:10:11.107Z,19.47
2022-07-25T03:11:14.779Z,19.46
2022-07-25T03:12:17.931Z,19.40
2022-07-25T03:13:21.058Z,19.36
2022-07-25T03:14:24.112Z,19.32
2022-07-25T03:15:27.127Z,19.23
2022-07-25T03:16:30.314Z,19.13
2022-07-25T03:17:33.430Z,19.32
2022-07-25T03:18:36.541Z,19.54
2022-07-25T03:19:39.672Z,19.52
2022-07-25T03:20:42.660Z,19.51
2022-07-25T03:21:46.454Z,19.41
2022-07-25T03:22:49.402Z,19.60
2022-07-25T03:23:52.980Z,19.77
2022-07-25T03:24:56.042Z,19.60
2022-07-25T03:25:59.320Z,19.47
2022-07-25T03:27:02.551Z,19.34
2022-07-25T03:28:05.814Z,19.25
2022-07-25T03:29:12.518Z,19.34
2022-07-25T03:30:15.569Z,19.39
2022-07-25T03:31:18.660Z,19.37
2022-07-25T03:32:21.838Z,19.33
2022-07-25T03:33:24.717Z,19.06
2022-07-25T03:34:28.040Z,18.95
2022-07-25T03:35:30.980Z,18.82
2022-07-25T03:36:34.056Z,18.67
2022-07-25T03:37:37.032Z,18.65
2022-07-25T03:38:40.271Z,18.77
2022-07-25T03:39:43.541Z,18.78
2022-07-25T03:40:46.605Z,18.67
2022-07-25T03:41:49.529Z,18.73
2022-07-25T03:42:52.539Z,18.87
2022-07-25T03:43:55.969Z,18.87
2022-07-25T03:44:59.000Z,18.83
2022-07-25T03:46:02.130Z,18.82
2022-07-25T03:47:06.081Z,18.90
2022-07-25T03:48:09.282Z,18.95
2022-07-25T03:49:12.499Z,18.92
2022-07-25T03:50:15.490Z,18.70
2022-07-25T03:51:18.450Z,18.72
2022-07-25T03:52:21.502Z,18.58
2022-07-25T03:53:24.677Z,18.50
2022-07-25T03:54:27.691Z,18.44
2022-07-25T03:55:30.900Z,18.61
2022-07-25T03:56:43.511Z,18.51
2022-07-25T03:57:47.097Z,18.61
2022-07-25T03:58:50.145Z,18.64
2022-07-25T03:59:53.255Z,18.57
2022-07-25T04:00:56.312Z,18.65
2022-07-25T04:02:01.832Z,18.65
2022-07-25T04:03:04.876Z,18.70
2022-07-25T04:04:08.578Z,18.84
2022-07-25T04:05:11.773Z,18.83
2022-07-25T04:06:14.972Z,18.81
2022-07-25T04:07:18.042Z,18.80
2022-07-25T04:08:21.814Z,18.76
2022-07-25T04:09:24.861Z,18.80
2022-07-25T04:10:27.865Z,18.76
2022-07-25T04:11:31.300Z,18.76
2022-07-25T04:12:34.481Z,18.75
2022-07-25T04:13:37.653Z,18.72
2022-07-25T04:14:40.714Z,18.70
2022-07-25T04:15:44.081Z,18.80
2022-07-25T04:16:47.304Z,18.81
2022-07-25T04:17:50.413Z,18.94
2022-07-25T04:18:53.429Z,18.80
2022-07-25T04:19:56.875Z,18.75
2022-07-25T04:20:59.970Z,18.87
2022-07-25T04:22:03.062Z,18.87
2022-07-25T04:23:06.069Z,18.82
2022-07-25T04:24:09.295Z,18.90
2022-07-25T04:25:12.498Z,18.92
2022-07-25T04:26:15.734Z,18.89
2022-07-25T04:27:18.795Z,18.87
2022-07-25T04:28:22.030Z,18.83
2022-07-25T04:29:24.987Z,19.11
2022-07-25T04:30:28.045Z,18.89
2022-07-25T04:31:31.155Z,18.81
2022-07-25T04:32:34.980Z,18.80
2022-07-25T04:33:38.897Z,18.87
2022-07-25T04:34:44.069Z,18.91
2022-07-25T04:35:47.183Z,19.03
2022-07-25T04:36:50.230Z,19.19
2022-07-25T04:37:53.469Z,19.16
2022-07-25T04:38:56.461Z,18.90
2022-07-25T04:39:59.343Z,18.90
2022-07-25T04:41:03.337Z,18.82
2022-07-25T04:42:07.544Z,18.90
2022-07-25T04:43:11.185Z,18.80
2022-07-25T04:44:14.331Z,18.99
2022-07-25T04:45:17.806Z,19.28
2022-07-25T04:46:22.228Z,19.37
2022-07-25T04:47:25.447Z,19.28
2022-07-25T04:48:29.641Z,19.21
2022-07-25T04:49:32.644Z,19.20
2022-07-25T04:50:35.699Z,19.22
2022-07-25T04:51:38.724Z,19.23
2022-07-25T04:52:42.968Z,19.11
2022-07-25T04:53:46.100Z,18.98
2022-07-25T04:54:52.723Z,19.25
2022-07-25T04:55:55.682Z,19.20
2022-07-25T04:56:58.734Z,19.20
2022-07-25T04:58:01.630Z,19.17
2022-07-25T04:59:06.822Z,19.24
2022-07-25T05:00:11.717Z,19.46
2022-07-25T05:01:15.002Z,19.57
2022-07-25T05:02:18.165Z,19.32
2022-07-25T05:03:21.297Z,19.06
2022-07-25T05:04:24.211Z,19.10
2022-07-25T05:05:33.602Z,19.11
2022-07-25T05:06:36.581Z,19.12
2022-07-25T05:07:39.523Z,19.18
2022-07-25T05:08:42.611Z,19.33
2022-07-25T05:09:46.297Z,19.33
2022-07-25T05:10:49.403Z,19.31
2022-07-25T05:11:56.004Z,19.31
2022-07-25T05:12:59.800Z,19.46
2022-07-25T05:14:02.966Z,19.59
2022-07-25T05:15:06.835Z,19.72
2022-07-25T05:16:11.362Z,19.65
2022-07-25T05:17:14.537Z,19.78
2022-07-25T05:18:17.924Z,19.70
2022-07-25T05:19:20.946Z,19.80
2022-07-25T05:20:24.016Z,19.93
2022-07-25T05:21:27.973Z,20.04
2022-07-25T05:22:31.087Z,20.24
2022-07-25T05:23:35.766Z,20.35
2022-07-25T05:24:40.361Z,20.32
2022-07-25T05:25:43.422Z,20.34
2022-07-25T05:26:46.492Z,20.39
2022-07-25T05:27:49.758Z,20.51
2022-07-25T05:28:52.736Z,20.67
2022-07-25T05:29:55.806Z,20.66
2022-07-25T05:30:58.852Z,20.87
2022-07-25T05:32:01.859Z,20.89
2022-07-25T05:33:04.864Z,20.90
2022-07-25T05:34:08.363Z,21.00
2022-07-25T05:35:11.731Z,21.12
2022-07-25T05:36:14.943Z,21.08
2022-07-25T05:37:21.321Z,21.06
2022-07-25T05:38:27.805Z,21.28
2022-07-25T05:39:30.776Z,21.24
2022-07-25T05:40:33.820Z,21.27
2022-07-25T05:41:36.705Z,21.28
2022-07-25T05:42:39.967Z,21.47
2022-07-25T05:43:46.460Z,21.60
2022-07-25T05:44:49.468Z,21.69
2022-07-25T05:45:53.519Z,21.68
2022-07-25T05:46:56.760Z,21.63
2022-07-25T05:47:59.933Z,21.78
2022-07-25T05:49:02.886Z,21.94
2022-07-25T05:50:07.079Z,21.88
2022-07-25T05:51:10.625Z,21.95
2022-07-25T05:52:13.800Z,21.99
2022-07-25T05:53:17.594Z,22.05
2022-07-25T05:54:23.699Z,22.02
2022-07-25T05:55:26.633Z,22.08
2022-07-25T05:56:30.407Z,22.11
2022-07-25T05:57:35.244Z,22.18
2022-07-25T05:58:40.772Z,22.23
2022-07-25T05:59:43.781Z,22.18
2022-07-25T06:00:46.661Z,22.28
2022-07-25T06:01:49.828Z,22.34
2022-07-25T06:02:53.175Z,22.42
2022-07-25T06:03:56.332Z,22.47
2022-07-25T06:04:59.755Z,22.33
2022-07-25T06:06:02.716Z,22.32
2022-07-25T06:07:05.710Z,22.39
2022-07-25T06:08:10.554Z,22.64
2022-07-25T06:09:16.714Z,22.58
2022-07-25T06:10:19.922Z,22.51
2022-07-25T06:11:23.095Z,22.58
2022-07-25T06:12:26.154Z,22.74
2022-07-25T06:13:28.931Z,22.85
2022-07-25T06:14:31.647Z,22.74
2022-07-25T06:15:34.524Z,22.73
2022-07-25T06:16:37.263Z,22.74
2022-07-25T06:17:40.035Z,22.83
2022-07-25T06:18:43.014Z,22.73
2022-07-25T06:19:45.815Z,22.81
2022-07-25T06:20:49.027Z,22.98
2022-07-25T06:21:51.845Z,23.01
2022-07-25T06:22:54.562Z,22.95
2022-07-25T06:23:57.352Z,22.95
2022-07-25T06:25:02.770Z,23.12
2022-07-25T06:26:10.378Z,23.32
2022-07-25T06:27:17.177Z,23.27
2022-07-25T06:28:23.219Z,23.09
2022-07-25T06:29:26.043Z,23.25
2022-07-25T06:30:29.668Z,23.30
2022-07-25T06:31:32.505Z,23.32
2022-07-25T06:32:35.721Z,23.34
2022-07-25T06:33:38.483Z,23.39
2022-07-25T06:34:41.287Z,23.38
2022-07-25T06:35:44.066Z,23.29
2022-07-25T06:36:46.760Z,23.31
2022-07-25T06:37:49.767Z,23.43
2022-07-25T06:38:52.516Z,23.50
2022-07-25T06:39:55.192Z,23.36
2022-07-25T06:40:58.631Z,23.60
2022-07-25T06:42:04.428Z,23.70
2022-07-25T06:43:07.252Z,23.37
2022-07-25T06:44:10.241Z,23.32
2022-07-25T06:45:14.861Z,23.32
2022-07-25T06:46:17.603Z,23.34
2022-07-25T06:47:20.346Z,23.55
2022-07-25T06:48:24.558Z,23.79
2022-07-25T06:49:27.429Z,23.61
2022-07-25T06:50:30.347Z,23.69
2022-07-25T06:51:33.287Z,23.75
2022-07-25T06:52:36.229Z,23.73
2022-07-25T06:53:38.919Z,23.70
2022-07-25T06:54:41.748Z,23.81
2022-07-25T06:55:44.581Z,23.87
2022-07-25T06:56:47.320Z,23.85
2022-07-25T06:57:50.113Z,23.91
2022-07-25T06:58:53.630Z,24.00
2022-07-25T06:59:56.242Z,23.98
2022-07-25T07:01:01.350Z,24.11
2022-07-25T07:02:04.356Z,24.22
2022-07-25T07:03:07.271Z,24.17
2022-07-25T07:04:10.313Z,24.24
2022-07-25T07:05:13.205Z,24.36
2022-07-25T07:06:17.369Z,24.38
2022-07-25T07:07:20.111Z,24.48
2022-07-25T07:08:23.104Z,24.42
2022-07-25T07:09:25.833Z,24.48
2022-07-25T07:10:28.825Z,24.52
2022-07-25T07:11:31.497Z,24.62
2022-07-25T07:12:34.249Z,24.55
2022-07-25T07:13:38.321Z,24.52
2022-07-25T07:14:42.125Z,24.51
2022-07-25T07:15:49.558Z,24.66
2022-07-25T07:16:52.414Z,24.63
2022-07-25T07:17:55.800Z,24.65
2022-07-25T07:18:58.820Z,24.65
2022-07-25T07:20:01.846Z,24.64
2022-07-25T07:21:06.255Z,24.77
2022-07-25T07:22:10.529Z,24.82
2022-07-25T07:23:16.629Z,25.06
2022-07-25T07:24:23.880Z,24.99
2022-07-25T07:25:28.440Z,25.24
2022-07-25T07:26:31.398Z,25.27
2022-07-25T07:27:34.183Z,25.15
2022-07-25T07:28:37.127Z,25.25
2022-07-25T07:29:39.927Z,25.37
2022-07-25T07:32:09.495Z,25.26
2022-07-25T07:33:13.164Z,25.38
2022-07-25T07:34:17.052Z,25.60
2022-07-25T07:35:20.258Z,25.73
2022-07-25T07:36:23.622Z,25.70
2022-07-25T07:37:26.334Z,25.47
2022-07-25T07:38:29.537Z,25.26
2022-07-25T07:39:32.585Z,25.40
2022-07-25T07:40:35.519Z,25.62
2022-07-25T07:41:38.741Z,25.68
2022-07-25T07:42:43.732Z,25.61
2022-07-25T07:43:46.767Z,25.75
2022-07-25T07:44:49.476Z,25.84
2022-07-25T07:45:52.531Z,25.91
2022-07-25T07:46:55.550Z,25.90
2022-07-25T07:47:58.577Z,26.09
2022-07-25T07:49:01.578Z,26.09
2022-07-25T07:50:04.617Z,25.96
2022-07-25T07:51:07.457Z,26.09
2022-07-25T07:52:10.292Z,26.15
2022-07-25T07:53:13.129Z,26.31
2022-07-25T07:54:34.434Z,26.47
2022-07-25T07:55:48.820Z,26.53
2022-07-25T07:56:51.878Z,26.63
2022-07-25T07:57:54.705Z,26.43
2022-07-25T07:58:57.580Z,26.51
2022-07-25T08:00:00.364Z,26.20
2022-07-25T08:01:03.092Z,26.28
2022-07-25T08:02:06.081Z,26.15
2022-07-25T08:03:09.603Z,26.03
2022-07-25T08:04:12.335Z,26.05
2022-07-25T08:05:32.731Z,26.17
2022-07-25T08:06:35.759Z,26.60
2022-07-25T08:07:38.663Z,26.61
2022-07-25T08:08:41.423Z,26.31
2022-07-25T08:09:44.109Z,26.41
2022-07-25T08:10:49.346Z,26.85
2022-07-25T08:11:53.200Z,27.16
2022-07-25T08:12:56.484Z,27.29
2022-07-25T08:13:59.382Z,26.92
2022-07-25T08:15:02.145Z,26.66
2022-07-25T08:16:05.923Z,27.04
2022-07-25T08:17:08.715Z,27.32
2022-07-25T08:18:16.907Z,27.48
2022-07-25T08:19:20.632Z,27.66
2022-07-25T08:20:39.457Z,27.83
2022-07-25T08:21:42.791Z,27.67
2022-07-25T08:22:56.024Z,27.62
2022-07-25T08:23:59.606Z,27.64
2022-07-25T08:25:02.305Z,27.55
2022-07-25T08:26:05.937Z,27.75
2022-07-25T08:27:08.687Z,27.84
2022-07-25T08:28:12.390Z,27.87
2022-07-25T08:29:20.065Z,27.97
2022-07-25T08:30:24.282Z,28.12
2022-07-25T08:31:28.252Z,27.92
2022-07-25T08:32:30.992Z,27.69
2022-07-25T08:33:33.810Z,27.14
2022-07-25T08:34:36.527Z,27.27
2022-07-25T08:35:42.548Z,27.61
2022-07-25T08:36:45.371Z,27.91
2022-07-25T08:37:49.315Z,28.02
2022-07-25T08:38:52.113Z,28.23
2022-07-25T08:39:55.068Z,28.08
2022-07-25T08:40:58.953Z,28.09
2022-07-25T08:42:07.714Z,28.44
2022-07-25T08:43:14.904Z,28.40
2022-07-25T08:44:18.925Z,28.44
2022-07-25T08:45:22.688Z,28.45
2022-07-25T08:46:25.815Z,28.48
2022-07-25T08:47:29.412Z,28.50
2022-07-25T08:48:32.257Z,28.52
2022-07-25T08:49:35.846Z,28.85
2022-07-25T08:50:39.709Z,28.92
2022-07-25T08:51:42.669Z,29.09
2022-07-25T08:52:47.902Z,28.57
2022-07-25T08:53:50.952Z,28.58
2022-07-25T08:54:55.001Z,28.28
2022-07-25T08:55:57.894Z,28.67
2022-07-25T08:57:00.772Z,28.85
2022-07-25T08:58:03.973Z,28.87
2022-07-25T08:59:06.874Z,29.12
2022-07-25T09:00:12.623Z,28.98
2022-07-25T09:01:15.424Z,29.24
2022-07-25T09:02:18.397Z,29.52
2022-07-25T09:03:24.688Z,29.48
2022-07-25T09:04:27.641Z,29.29
2022-07-25T09:05:32.290Z,29.23
2022-07-25T09:06:35.229Z,29.33
2022-07-25T09:07:40.660Z,29.59
2022-07-25T09:08:54.569Z,29.75
2022-07-25T09:09:57.527Z,29.97
2022-07-25T09:11:00.312Z,29.86
2022-07-25T09:12:03.428Z,29.36
2022-07-25T09:13:11.090Z,29.16
2022-07-25T09:14:15.358Z,29.22
2022-07-25T09:15:30.190Z,29.19
2022-07-25T09:16:39.012Z,28.82
2022-07-25T09:17:51.245Z,28.85
2022-07-25T09:18:54.032Z,29.40
2022-07-25T09:19:57.940Z,29.82
2022-07-25T09:21:01.847Z,29.51
2022-07-25T09:22:06.995Z,29.74
2022-07-25T09:23:28.500Z,29.64
2022-07-25T09:24:32.529Z,29.64
2022-07-25T09:25:36.079Z,29.00
2022-07-25T09:26:56.233Z,29.14
2022-07-25T09:28:19.003Z,28.96
2022-07-25T09:29:26.445Z,28.08
2022-07-25T09:30:29.222Z,28.14
2022-07-25T09:31:33.269Z,28.57
2022-07-25T09:32:36.005Z,28.76
2022-07-25T09:33:46.303Z,28.91
2022-07-25T09:34:51.096Z,29.05
2022-07-25T09:35:55.934Z,29.05
2022-07-25T09:36:58.976Z,29.42
2022-07-25T09:38:09.457Z,29.36
2022-07-25T09:39:12.479Z,29.31
2022-07-25T09:40:16.623Z,29.06
2022-07-25T09:41:20.018Z,29.39
2022-07-25T09:42:32.501Z,29.28
2022-07-25T09:43:40.289Z,29.38
2022-07-25T09:44:43.380Z,29.61
2022-07-25T09:45:52.561Z,29.46
2022-07-25T09:46:55.612Z,29.03
2022-07-25T09:48:04.033Z,29.55
2022-07-25T09:49:06.802Z,29.69
2022-07-25T09:50:15.628Z,29.83
2022-07-25T09:51:18.608Z,29.86
2022-07-25T09:52:21.395Z,30.04
2022-07-25T09:53:24.602Z,30.20
2022-07-25T09:54:27.475Z,30.42
2022-07-25T09:55:31.498Z,30.17
2022-07-25T09:56:36.031Z,29.26
2022-07-25T09:57:38.738Z,28.80
2022-07-25T09:58:41.523Z,29.66
2022-07-25T09:59:45.001Z,29.75
2022-07-25T10:00:48.026Z,30.09
2022-07-25T10:02:05.123Z,30.18
2022-07-25T10:03:19.518Z,29.88
2022-07-25T10:04:29.208Z,29.96
2022-07-25T10:06:00.666Z,29.56
2022-07-25T10:07:09.981Z,30.31
2022-07-25T10:08:15.422Z,30.20
2022-07-25T10:09:18.490Z,30.64
2022-07-25T10:10:25.374Z,29.71
2022-07-25T10:11:30.691Z,29.23
2022-07-25T10:12:33.885Z,29.44
2022-07-25T10:13:38.582Z,29.92
2022-07-25T10:14:42.023Z,29.63
2022-07-25T10:15:46.376Z,30.26
2022-07-25T10:16:50.218Z,30.68
2022-07-25T10:18:04.006Z,30.86
2022-07-25T10:19:06.781Z,30.88
2022-07-25T10:20:10.582Z,30.35
2022-07-25T10:21:26.722Z,29.58
2022-07-25T10:22:57.545Z,30.47
2022-07-25T10:24:10.130Z,30.54
2022-07-25T10:25:18.187Z,30.19
2022-07-25T10:26:21.089Z,30.21
2022-07-25T10:27:27.796Z,30.32
2022-07-25T10:28:39.422Z,30.80
2022-07-25T10:29:42.771Z,30.86
2022-07-25T10:30:45.892Z,31.05
2022-07-25T10:31:54.588Z,30.98
2022-07-25T10:33:05.307Z,31.06
2022-07-25T10:34:10.963Z,30.58
2022-07-25T10:35:17.482Z,30.98
2022-07-25T10:36:21.611Z,31.30
2022-07-25T10:37:32.742Z,31.49
2022-07-25T10:38:35.445Z,31.50
2022-07-25T10:39:43.653Z,31.49
2022-07-25T10:40:48.267Z,31.57
2022-07-25T10:41:58.762Z,31.42
2022-07-25T10:43:05.482Z,30.75
2022-07-25T10:44:16.093Z,30.74
2022-07-25T10:45:18.924Z,30.76
2022-07-25T10:46:27.642Z,31.44
2022-07-25T10:47:30.729Z,31.19
2022-07-25T10:48:33.959Z,31.54
2022-07-25T10:49:50.148Z,31.90
2022-07-25T10:51:07.956Z,31.85
2022-07-25T10:52:18.086Z,31.80
2022-07-25T10:53:39.250Z,32.20
2022-07-25T10:54:42.314Z,32.15
2022-07-25T10:56:04.834Z,32.20
2022-07-25T10:57:16.245Z,32.06
2022-07-25T10:58:19.112Z,32.12
2022-07-25T10:59:32.765Z,31.98
2022-07-25T11:00:45.124Z,31.85
2022-07-25T11:01:51.269Z,31.94
2022-07-25T11:02:57.767Z,31.94
2022-07-25T11:04:06.573Z,31.85
2022-07-25T11:05:13.134Z,31.58
2022-07-25T11:06:17.416Z,31.51
2022-07-25T11:07:20.134Z,31.06
2022-07-25T11:08:32.283Z,31.28
2022-07-25T11:09:34.939Z,31.62
2022-07-25T11:10:37.597Z,31.80
2022-07-25T11:11:48.573Z,31.60
2022-07-25T11:12:51.377Z,31.68
2022-07-25T11:13:55.174Z,31.52
2022-07-25T11:15:03.704Z,31.30
2022-07-25T11:16:09.695Z,31.41
2022-07-25T11:17:21.147Z,31.76
2022-07-25T11:18:50.831Z,31.85
2022-07-25T11:19:58.840Z,32.04
2022-07-25T11:21:06.222Z,31.46
2022-07-25T11:22:11.622Z,31.33
2022-07-25T11:23:21.826Z,31.66
2022-07-25T11:24:37.051Z,31.95
2022-07-25T11:25:42.434Z,31.83
2022-07-25T11:26:49.837Z,31.86
2022-07-25T11:28:00.886Z,32.12
2022-07-25T11:29:03.818Z,31.67
2022-07-25T11:30:14.861Z,32.02
2022-07-25T11:31:19.233Z,32.18
2022-07-25T11:32:22.101Z,32.16
2022-07-25T11:33:24.887Z,31.68
2022-07-25T11:34:36.631Z,31.59
2022-07-25T11:35:40.130Z,31.79
2022-07-25T11:36:43.810Z,31.71
2022-07-25T11:37:49.275Z,31.15
2022-07-25T11:38:52.063Z,31.77
2022-07-25T11:39:58.775Z,31.51
2022-07-25T11:41:01.900Z,31.50
2022-07-25T11:42:10.708Z,31.35
2022-07-25T11:43:24.770Z,32.01
2022-07-25T11:44:47.273Z,32.20
2022-07-25T11:46:06.978Z,31.91
2022-07-25T11:47:29.718Z,32.22
2022-07-25T11:48:41.105Z,32.61
2022-07-25T11:49:46.252Z,31.92
2022-07-25T11:50:49.037Z,32.43
2022-07-25T11:51:51.849Z,32.58
2022-07-25T11:53:03.981Z,32.58
2022-07-25T11:54:11.520Z,32.39
2022-07-25T11:55:18.227Z,32.41
2022-07-25T11:56:41.903Z,32.30
2022-07-25T11:57:47.236Z,32.04
2022-07-25T11:59:02.636Z,32.23
2022-07-25T12:00:11.922Z,32.39
2022-07-25T12:01:16.415Z,32.52
2022-07-25T12:02:24.086Z,32.23
2022-07-25T12:03:38.621Z,32.25
2022-07-25T12:04:41.459Z,32.08
2022-07-25T12:05:44.511Z,32.14
2022-07-25T12:06:51.756Z,32.39
2022-07-25T12:07:55.435Z,32.73
2022-07-25T12:08:58.233Z,32.98
2022-07-25T12:10:02.802Z,32.55
2022-07-25T12:11:17.716Z,32.61
2022-07-25T12:12:20.424Z,32.36
2022-07-25T12:13:25.955Z,32.47
2022-07-25T12:14:32.300Z,32.52
2022-07-25T12:15:40.411Z,32.61
2022-07-25T12:16:43.391Z,32.92
2022-07-25T12:17:47.139Z,33.12
2022-07-25T12:18:49.901Z,32.69
2022-07-25T12:19:52.587Z,32.28
2022-07-25T12:20:55.439Z,32.69
2022-07-25T12:21:58.469Z,32.83
2022-07-25T12:23:06.985Z,32.99
2022-07-25T12:24:13.705Z,32.95
2022-07-25T12:25:16.618Z,32.85
2022-07-25T12:26:20.028Z,32.45
2022-07-25T12:27:22.870Z,32.81
2022-07-25T12:28:26.005Z,32.85
2022-07-25T12:29:34.473Z,33.05
2022-07-25T12:30:39.218Z,33.09
2022-07-25T12:31:42.088Z,33.05
2022-07-25T12:32:45.056Z,33.08
2022-07-25T12:33:49.305Z,32.68
2022-07-25T12:34:52.092Z,32.83
2022-07-25T12:35:54.831Z,33.01
2022-07-25T12:36:57.594Z,32.73
2022-07-25T12:38:00.805Z,32.78
2022-07-25T12:39:04.013Z,32.67
2022-07-25T12:40:08.005Z,32.29
2022-07-25T12:41:14.583Z,32.17
2022-07-25T12:42:23.705Z,32.62
2022-07-25T12:43:26.363Z,33.10
2022-07-25T12:44:29.165Z,33.15
2022-07-25T12:45:31.974Z,32.90
2022-07-25T12:46:36.499Z,33.14
2022-07-25T12:47:39.465Z,33.38
2022-07-25T12:48:42.307Z,33.19
2022-07-25T12:49:45.173Z,32.95
2022-07-25T12:50:48.192Z,32.78
2022-07-25T12:51:56.114Z,32.48
2022-07-25T12:53:01.520Z,32.31
2022-07-25T12:54:04.740Z,32.40
2022-07-25T12:55:09.603Z,32.72
2022-07-25T12:56:12.484Z,32.91
2022-07-25T12:57:15.616Z,32.84
2022-07-25T12:58:18.456Z,32.80
2022-07-25T12:59:21.444Z,32.78
2022-07-25T13:00:24.427Z,32.71
2022-07-25T13:01:27.214Z,32.93
2022-07-25T13:02:30.021Z,33.12
2022-07-25T13:03:32.636Z,33.23
2022-07-25T13:04:35.508Z,32.11
2022-07-25T13:05:38.160Z,31.77
2022-07-25T13:06:41.016Z,31.19
2022-07-25T13:07:44.021Z,30.96
2022-07-25T13:08:47.561Z,31.35
2022-07-25T13:09:50.293Z,31.64
2022-07-25T13:10:53.088Z,32.11
2022-07-25T13:11:56.328Z,32.14
2022-07-25T13:12:59.016Z,32.03
2022-07-25T13:14:01.935Z,32.28
2022-07-25T13:15:05.229Z,32.64
2022-07-25T13:16:08.317Z,32.84
2022-07-25T13:17:11.369Z,32.82
2022-07-25T13:18:14.214Z,32.73
2022-07-25T13:19:17.614Z,32.68
2022-07-25T13:20:20.405Z,32.52
2022-07-25T13:21:23.152Z,32.57
2022-07-25T13:22:26.427Z,32.80
2022-07-25T13:23:29.780Z,32.80
2022-07-25T13:24:34.907Z,32.48
2022-07-25T13:25:37.681Z,32.30
2022-07-25T13:26:40.719Z,32.60
2022-07-25T13:27:43.396Z,32.54
2022-07-25T13:28:46.644Z,32.65
2022-07-25T13:29:56.327Z,32.67
2022-07-25T13:31:01.797Z,32.37
2022-07-25T13:32:04.807Z,32.15
2022-07-25T13:33:10.804Z,30.63
2022-07-25T13:34:13.595Z,30.73
2022-07-25T13:35:20.296Z,31.05
2022-07-25T13:36:23.622Z,31.42
2022-07-25T13:37:26.427Z,31.84
2022-07-25T13:38:29.282Z,32.24
2022-07-25T13:39:32.073Z,32.15
2022-07-25T13:40:34.999Z,32.01
2022-07-25T13:41:37.629Z,32.45
2022-07-25T13:42:40.775Z,32.81
2022-07-25T13:43:43.626Z,32.87
2022-07-25T13:44:46.420Z,32.83
2022-07-25T13:45:49.255Z,32.73
2022-07-25T13:46:52.134Z,32.88
2022-07-25T13:48:18.987Z,32.89
2022-07-25T13:49:18.383Z,32.81
2022-07-25T13:50:21.565Z,32.97
2022-07-25T13:51:24.508Z,32.68
2022-07-25T13:52:27.283Z,32.99
2022-07-25T13:53:30.644Z,32.96
2022-07-25T13:54:33.704Z,32.80